Aérodrome :
LOGIN :

S'inscrire | Disclaimer

   EN    FR    IT 

 










Légende :    VFR   VFR Marginal   IFR   IFR Intensif   IFR Très Intensif
Visi : 
Plafond : 
>= 8 km
>= 3000ft
5 à 8 km
1000 à 3000 ft
1500m à 5 km
500 à 1000 ft
800 à 1500m
200 à 500 ft
< 800m
< 200 ft
Symboles :   Orages  Brouillard  Fortes neiges  Fortes précipitations  Vent > 20 kt
SIGMETs :   Divers  Orages  Givrage  Turbulence  Onde Orograph.  Cendres Volcan.







- Altitude de l'aérodrome : 416 ft
- Code IATA : OVD


LEAS - Asturias

DERNIER METAR :
  • 250809Z VRB02KT 2000 BCFG BR BKN002 BKN015 17/17 Q1017 NOSIG

METARs EXPIRÉS :
  • 250800Z 09003KT 060V120 4000 BCFG BR SCT002 BKN005 BKN019 17/17 Q1017 NOSIG
  • 250730Z VRB02KT 2000 BCFG BKN002 BKN015 16/16 Q1017 NOSIG
  • 250700Z VRB02KT 2000 BCFG SCT001 BKN003 16/16 Q1017 NOSIG
  • 250630Z 00000KT 2000 BCFG SCT001 BKN002 16/16 Q1017 NOSIG
  • 250600Z VRB01KT 2000 BCFG SCT001 BKN002 16/16 Q1016 NOSIG
  • 250549Z 00000KT 2000 BCFG SCT001 BKN003 16/16 Q1016 NOSIG
  • 250536Z VRB02KT 0800 R29/1600N R11/0650U FG VV001 16/16 Q1016 NOSIG

TAF AMD TAF LEAS
Valide du 25 à 04h jusqu'au 26 à 03h UTC


250450Z 2504/2603 VRB05KT 8000 SCT010 BKN020 TX20/2514Z TN14/2506Z
TEMPO 2504/2512 3000 BR BKN010
TEMPO 2504/2512 1500 BCFG BKN005 BKN010
TEMPO 2504/2510 0350 BCFG BKN001
PROB40
TEMPO 2512/2518 03010KT
TEMPO 2512/2603 3000 RA SHRA BKN010 SCT025TCU
TEMPO 2518/2603 1500 -RA BCFG BKN005 BKN010
Pas de NOTAMs connus pour ce terrain.



MET'MAP, la Météo Aéronautique d'un coup d'oeil ! - Copyright ORBIFLY Décembre 2007 - Disclaimer

ORBIFLY MET'MAP TEAM :

Programmation & Développement : Alexandra Zaïnal
Conception & Développement : Baudouin d'Aumeries
Co-Programmation & Développement : Marc-Olivier Méhu
Soutien technique & logistique : Manuel Goepfert

Contact : metmap@orbifly.com




SOURCES & CREDITS :

   NOAA